sensor_id;sensor_type;location;lat;lon;timestamp;temperature;humidity
17007;DHT22;8620;51.168;4.154;2023-01-08T07:34:42;8.30;99.90
17007;DHT22;8620;51.168;4.154;2023-01-08T07:37:37;8.30;99.90
17007;DHT22;8620;51.168;4.154;2023-01-08T07:40:57;8.30;99.90
17007;DHT22;8620;51.168;4.154;2023-01-08T07:43:49;8.30;99.90
17007;DHT22;8620;51.168;4.154;2023-01-08T07:46:40;8.30;99.90
17007;DHT22;8620;51.168;4.154;2023-01-08T07:49:22;8.30;99.90
17007;DHT22;8620;51.168;4.154;2023-01-08T07:52:31;8.40;99.90
17007;DHT22;8620;51.168;4.154;2023-01-08T07:55:40;8.20;99.90
17007;DHT22;8620;51.168;4.154;2023-01-08T07:58:44;8.20;99.90
17007;DHT22;8620;51.168;4.154;2023-01-08T08:01:52;8.30;99.90
17007;DHT22;8620;51.168;4.154;2023-01-08T08:04:56;8.30;99.90
17007;DHT22;8620;51.168;4.154;2023-01-08T08:07:43;8.40;99.90
17007;DHT22;8620;51.168;4.154;2023-01-08T08:10:52;8.30;99.90
17007;DHT22;8620;51.168;4.154;2023-01-08T08:16:58;8.40;99.90
17007;DHT22;8620;51.168;4.154;2023-01-08T08:19:55;8.30;99.90
17007;DHT22;8620;51.168;4.154;2023-01-08T08:22:21;8.20;99.90
17007;DHT22;8620;51.168;4.154;2023-01-08T08:25:12;8.30;99.90
17007;DHT22;8620;51.168;4.154;2023-01-08T08:27:42;8.30;99.90
17007;DHT22;8620;51.168;4.154;2023-01-08T08:30:21;8.20;99.90
17007;DHT22;8620;51.168;4.154;2023-01-08T08:33:01;8.20;99.90
17007;DHT22;8620;51.168;4.154;2023-01-08T08:35:46;8.10;99.90
17007;DHT22;8620;51.168;4.154;2023-01-08T08:38:38;8.20;99.90
17007;DHT22;8620;51.168;4.154;2023-01-08T08:41:25;8.20;99.90
17007;DHT22;8620;51.168;4.154;2023-01-08T08:44:17;8.10;99.90
17007;DHT22;8620;51.168;4.154;2023-01-08T08:47:07;8.20;99.90
17007;DHT22;8620;51.168;4.154;2023-01-08T08:50:11;8.30;99.90
17007;DHT22;8620;51.168;4.154;2023-01-08T08:53:33;8.30;99.90
17007;DHT22;8620;51.168;4.154;2023-01-08T08:56:33;8.40;99.90
17007;DHT22;8620;51.168;4.154;2023-01-08T08:59:22;8.30;99.90
17007;DHT22;8620;51.168;4.154;2023-01-08T09:02:06;8.40;99.90
17007;DHT22;8620;51.168;4.154;2023-01-08T09:04:56;8.60;99.90
17007;DHT22;8620;51.168;4.154;2023-01-08T09:07:58;8.60;99.90
17007;DHT22;8620;51.168;4.154;2023-01-08T09:10:51;8.70;99.90
17007;DHT22;8620;51.168;4.154;2023-01-08T09:13:44;8.70;99.90
17007;DHT22;8620;51.168;4.154;2023-01-08T09:16:18;8.70;99.90
17007;DHT22;8620;51.168;4.154;2023-01-08T09:19:21;8.70;99.90
17007;DHT22;8620;51.168;4.154;2023-01-08T09:22:12;8.80;99.90
17007;DHT22;8620;51.168;4.154;2023-01-08T09:28:24;9.10;99.90
17007;DHT22;8620;51.168;4.154;2023-01-08T09:31:32;9.00;99.90
17007;DHT22;8620;51.168;4.154;2023-01-08T09:34:34;9.10;99.90
17007;DHT22;8620;51.168;4.154;2023-01-08T09:41:45;9.40;99.90
17007;DHT22;8620;51.168;4.154;2023-01-08T09:44:36;9.50;99.90
17007;DHT22;8620;51.168;4.154;2023-01-08T09:47:35;9.60;99.90
17007;DHT22;8620;51.168;4.154;2023-01-08T09:50:51;9.60;99.90
17007;DHT22;8620;51.168;4.154;2023-01-08T09:53:56;9.50;99.90
17007;DHT22;8620;51.168;4.154;2023-01-08T09:57:03;9.70;99.90
17007;DHT22;8620;51.168;4.154;2023-01-08T10:00:05;9.80;99.90
17007;DHT22;8620;51.168;4.154;2023-01-08T10:03:35;9.80;99.90
17007;DHT22;8620;51.168;4.154;2023-01-08T10:06:14;10.10;99.90
17007;DHT22;8620;51.168;4.154;2023-01-08T10:09:01;10.30;99.90
17007;DHT22;8620;51.168;4.154;2023-01-08T10:11:40;10.10;99.90
17007;DHT22;8620;51.168;4.154;2023-01-08T10:14:51;10.00;99.90
17007;DHT22;8620;51.168;4.154;2023-01-08T10:33:56;10.10;99.90
17007;DHT22;8620;51.168;4.154;2023-01-08T10:36:47;10.20;99.90
17007;DHT22;8620;51.168;4.154;2023-01-08T10:39:44;10.50;99.90
17007;DHT22;8620;51.168;4.154;2023-01-08T10:42:14;10.60;99.90
17007;DHT22;8620;51.168;4.154;2023-01-08T10:45:11;10.50;99.90
17007;DHT22;8620;51.168;4.154;2023-01-08T10:47:53;10.70;99.90
17007;DHT22;8620;51.168;4.154;2023-01-08T10:50:33;10.50;99.90
17007;DHT22;8620;51.168;4.154;2023-01-08T10:53:24;10.70;99.90
17007;DHT22;8620;51.168;4.154;2023-01-08T10:56:02;10.60;99.90
17007;DHT22;8620;51.168;4.154;2023-01-08T10:58:46;10.40;99.90
17007;DHT22;8620;51.168;4.154;2023-01-08T11:07:14;10.80;99.90
17007;DHT22;8620;51.168;4.154;2023-01-08T11:09:54;10.70;99.90
17007;DHT22;8620;51.168;4.154;2023-01-08T11:13:16;10.90;99.90
17007;DHT22;8620;51.168;4.154;2023-01-08T11:16:07;11.10;99.90
17007;DHT22;8620;51.168;4.154;2023-01-08T11:19:21;11.60;99.90
17007;DHT22;8620;51.168;4.154;2023-01-08T11:22:16;11.50;99.90
17007;DHT22;8620;51.168;4.154;2023-01-08T11:24:53;11.30;99.90
17007;DHT22;8620;51.168;4.154;2023-01-08T11:28:00;11.70;99.90
17007;DHT22;8620;51.168;4.154;2023-01-08T11:30:32;11.90;99.90
17007;DHT22;8620;51.168;4.154;2023-01-08T11:33:25;11.70;99.90
17007;DHT22;8620;51.168;4.154;2023-01-08T11:36:28;11.40;99.90
17007;DHT22;8620;51.168;4.154;2023-01-08T11:39:08;11.00;99.90
17007;DHT22;8620;51.168;4.154;2023-01-08T11:50:58;10.80;99.90
17007;DHT22;8620;51.168;4.154;2023-01-08T12:07:17;11.10;99.90
17007;DHT22;8620;51.168;4.154;2023-01-08T12:28:32;11.10;99.90
17007;DHT22;8620;51.168;4.154;2023-01-08T12:37:47;10.90;99.90
17007;DHT22;8620;51.168;4.154;2023-01-08T12:46:43;10.80;99.90
17007;DHT22;8620;51.168;4.154;2023-01-08T12:59:31;10.70;99.90
17007;DHT22;8620;51.168;4.154;2023-01-08T13:02:43;10.90;99.90
17007;DHT22;8620;51.168;4.154;2023-01-08T13:08:21;11.00;99.90
17007;DHT22;8620;51.168;4.154;2023-01-08T13:14:38;10.70;99.90
17007;DHT22;8620;51.168;4.154;2023-01-08T13:17:30;10.80;99.90
17007;DHT22;8620;51.168;4.154;2023-01-08T13:23:27;10.70;99.90
17007;DHT22;8620;51.168;4.154;2023-01-08T13:26:26;10.80;99.90
17007;DHT22;8620;51.168;4.154;2023-01-08T13:32:44;10.80;99.90
17007;DHT22;8620;51.168;4.154;2023-01-08T13:46:24;11.00;99.90
17007;DHT22;8620;51.168;4.154;2023-01-08T13:55:58;10.60;99.90
17007;DHT22;8620;51.168;4.154;2023-01-08T13:58:51;10.60;99.90
17007;DHT22;8620;51.168;4.154;2023-01-08T14:01:19;10.70;99.90
17007;DHT22;8620;51.168;4.154;2023-01-08T14:04:18;10.70;99.90
17007;DHT22;8620;51.168;4.154;2023-01-08T14:07:13;10.70;99.90
17007;DHT22;8620;51.168;4.154;2023-01-08T14:09:39;10.60;99.90
17007;DHT22;8620;51.168;4.154;2023-01-08T14:12:30;10.60;99.90
17007;DHT22;8620;51.168;4.154;2023-01-08T14:15:41;10.80;99.90
17007;DHT22;8620;51.168;4.154;2023-01-08T14:18:48;11.00;99.90
17007;DHT22;8620;51.168;4.154;2023-01-08T14:21:22;10.80;99.90
17007;DHT22;8620;51.168;4.154;2023-01-08T14:24:18;10.90;99.90
17007;DHT22;8620;51.168;4.154;2023-01-08T14:27:21;10.80;99.90
17007;DHT22;8620;51.168;4.154;2023-01-08T14:29:54;10.70;99.90
17007;DHT22;8620;51.168;4.154;2023-01-08T14:32:30;10.70;99.90
17007;DHT22;8620;51.168;4.154;2023-01-08T14:45:02;10.60;99.90
17007;DHT22;8620;51.168;4.154;2023-01-08T14:48:23;10.60;99.90
17007;DHT22;8620;51.168;4.154;2023-01-08T14:54:27;10.60;99.90
17007;DHT22;8620;51.168;4.154;2023-01-08T14:57:20;10.60;99.90
17007;DHT22;8620;51.168;4.154;2023-01-08T15:03:45;10.40;99.90
17007;DHT22;8620;51.168;4.154;2023-01-08T15:06:52;10.40;99.90
17007;DHT22;8620;51.168;4.154;2023-01-08T15:10:21;10.50;99.90
17007;DHT22;8620;51.168;4.154;2023-01-08T15:13:49;10.50;99.90
17007;DHT22;8620;51.168;4.154;2023-01-08T15:19:23;10.50;99.90
17007;DHT22;8620;51.168;4.154;2023-01-08T15:22:22;10.50;99.90
17007;DHT22;8620;51.168;4.154;2023-01-08T15:25:14;10.50;99.90
17007;DHT22;8620;51.168;4.154;2023-01-08T15:28:10;10.50;99.90
17007;DHT22;8620;51.168;4.154;2023-01-08T15:30:52;10.50;99.90
17007;DHT22;8620;51.168;4.154;2023-01-08T15:33:43;10.40;99.90
17007;DHT22;8620;51.168;4.154;2023-01-08T15:37:05;10.60;99.90
17007;DHT22;8620;51.168;4.154;2023-01-08T15:39:55;10.40;99.90
17007;DHT22;8620;51.168;4.154;2023-01-08T15:42:50;10.40;99.90
17007;DHT22;8620;51.168;4.154;2023-01-08T15:49:23;10.50;99.90
17007;DHT22;8620;51.168;4.154;2023-01-08T15:52:03;10.40;99.90
17007;DHT22;8620;51.168;4.154;2023-01-08T15:55:24;10.50;99.90
17007;DHT22;8620;51.168;4.154;2023-01-08T15:58:13;10.50;99.90
17007;DHT22;8620;51.168;4.154;2023-01-08T16:01:14;10.50;99.90
17007;DHT22;8620;51.168;4.154;2023-01-08T16:04:49;10.50;99.90
17007;DHT22;8620;51.168;4.154;2023-01-08T16:08:10;10.40;99.90
17007;DHT22;8620;51.168;4.154;2023-01-08T16:11:07;10.40;99.90
17007;DHT22;8620;51.168;4.154;2023-01-08T16:13:56;10.40;99.90
17007;DHT22;8620;51.168;4.154;2023-01-08T16:17:10;10.40;99.90
17007;DHT22;8620;51.168;4.154;2023-01-08T16:19:59;10.40;99.90
17007;DHT22;8620;51.168;4.154;2023-01-08T16:23:07;10.50;99.90
17007;DHT22;8620;51.168;4.154;2023-01-08T16:25:54;10.60;99.90
17007;DHT22;8620;51.168;4.154;2023-01-08T16:28:31;10.50;99.90
17007;DHT22;8620;51.168;4.154;2023-01-08T16:31:26;10.40;99.90
17007;DHT22;8620;51.168;4.154;2023-01-08T16:34:19;10.40;99.90
17007;DHT22;8620;51.168;4.154;2023-01-08T16:36:53;10.40;99.90
17007;DHT22;8620;51.168;4.154;2023-01-08T16:43:18;10.40;99.90
17007;DHT22;8620;51.168;4.154;2023-01-08T16:46:10;10.40;99.90
17007;DHT22;8620;51.168;4.154;2023-01-08T16:48:43;10.40;99.90
17007;DHT22;8620;51.168;4.154;2023-01-08T16:51:16;10.40;99.90
17007;DHT22;8620;51.168;4.154;2023-01-08T16:53:42;10.30;99.90
17007;DHT22;8620;51.168;4.154;2023-01-08T16:56:28;10.30;99.90
17007;DHT22;8620;51.168;4.154;2023-01-08T16:59:20;10.30;99.90
17007;DHT22;8620;51.168;4.154;2023-01-08T17:01:54;10.30;99.90
17007;DHT22;8620;51.168;4.154;2023-01-08T17:04:21;10.20;99.90
17007;DHT22;8620;51.168;4.154;2023-01-08T17:07:28;10.20;99.90
17007;DHT22;8620;51.168;4.154;2023-01-08T17:10:06;10.10;99.90
17007;DHT22;8620;51.168;4.154;2023-01-08T17:12:55;10.10;99.90
17007;DHT22;8620;51.168;4.154;2023-01-08T17:15:24;10.20;99.90
17007;DHT22;8620;51.168;4.154;2023-01-08T17:17:54;10.10;99.90
17007;DHT22;8620;51.168;4.154;2023-01-08T17:20:20;10.20;99.90
17007;DHT22;8620;51.168;4.154;2023-01-08T17:23:08;10.20;99.90
17007;DHT22;8620;51.168;4.154;2023-01-08T17:26:16;10.30;99.90
17007;DHT22;8620;51.168;4.154;2023-01-08T17:28:43;10.30;99.90
17007;DHT22;8620;51.168;4.154;2023-01-08T17:31:12;10.20;99.90
17007;DHT22;8620;51.168;4.154;2023-01-08T17:33:59;10.20;99.90
17007;DHT22;8620;51.168;4.154;2023-01-08T17:36:35;10.10;99.90
17007;DHT22;8620;51.168;4.154;2023-01-08T17:39:01;10.20;99.90
17007;DHT22;8620;51.168;4.154;2023-01-08T17:41:37;10.10;99.90
17007;DHT22;8620;51.168;4.154;2023-01-08T17:44:25;10.20;99.90
17007;DHT22;8620;51.168;4.154;2023-01-08T17:47:06;10.20;99.90
17007;DHT22;8620;51.168;4.154;2023-01-08T17:49:38;10.20;99.90
17007;DHT22;8620;51.168;4.154;2023-01-08T17:52:08;10.20;99.90
17007;DHT22;8620;51.168;4.154;2023-01-08T17:54:35;10.20;99.90
17007;DHT22;8620;51.168;4.154;2023-01-08T17:57:08;10.20;99.90
17007;DHT22;8620;51.168;4.154;2023-01-08T17:59:56;10.20;99.90
17007;DHT22;8620;51.168;4.154;2023-01-08T18:02:21;10.30;99.90
17007;DHT22;8620;51.168;4.154;2023-01-08T18:04:49;10.30;99.90
17007;DHT22;8620;51.168;4.154;2023-01-08T18:07:44;10.40;99.90
17007;DHT22;8620;51.168;4.154;2023-01-08T18:10:41;10.50;99.90
17007;DHT22;8620;51.168;4.154;2023-01-08T18:13:28;10.50;99.90
17007;DHT22;8620;51.168;4.154;2023-01-08T18:16:14;10.50;99.90
17007;DHT22;8620;51.168;4.154;2023-01-08T18:18:40;10.50;99.90
17007;DHT22;8620;51.168;4.154;2023-01-08T18:21:26;10.60;99.90
17007;DHT22;8620;51.168;4.154;2023-01-08T18:24:09;10.50;99.90
17007;DHT22;8620;51.168;4.154;2023-01-08T18:26:41;10.50;99.90
17007;DHT22;8620;51.168;4.154;2023-01-08T18:29:08;10.40;99.90
17007;DHT22;8620;51.168;4.154;2023-01-08T18:31:40;10.30;99.90
17007;DHT22;8620;51.168;4.154;2023-01-08T18:34:26;10.40;99.90
17007;DHT22;8620;51.168;4.154;2023-01-08T18:37:04;10.20;99.90
17007;DHT22;8620;51.168;4.154;2023-01-08T18:39:50;10.30;99.90
17007;DHT22;8620;51.168;4.154;2023-01-08T18:42:38;10.30;99.90
17007;DHT22;8620;51.168;4.154;2023-01-08T18:45:25;10.20;99.90
17007;DHT22;8620;51.168;4.154;2023-01-08T18:48:14;10.10;99.90
17007;DHT22;8620;51.168;4.154;2023-01-08T18:50:43;10.20;99.90
17007;DHT22;8620;51.168;4.154;2023-01-08T18:53:21;10.20;99.90
17007;DHT22;8620;51.168;4.154;2023-01-08T18:55:51;10.20;99.90
17007;DHT22;8620;51.168;4.154;2023-01-08T18:58:57;10.20;99.90
17007;DHT22;8620;51.168;4.154;2023-01-08T19:02:23;10.10;99.90
17007;DHT22;8620;51.168;4.154;2023-01-08T19:05:01;10.10;99.90
17007;DHT22;8620;51.168;4.154;2023-01-08T19:08:05;10.00;99.90
17007;DHT22;8620;51.168;4.154;2023-01-08T19:13:56;9.80;99.90
17007;DHT22;8620;51.168;4.154;2023-01-08T19:16:45;9.80;99.90
17007;DHT22;8620;51.168;4.154;2023-01-08T19:19:44;9.80;99.90
17007;DHT22;8620;51.168;4.154;2023-01-08T19:22:25;9.80;99.90
17007;DHT22;8620;51.168;4.154;2023-01-08T19:24:55;9.70;99.90
17007;DHT22;8620;51.168;4.154;2023-01-08T19:27:26;9.60;99.90
17007;DHT22;8620;51.168;4.154;2023-01-08T19:29:59;9.60;99.90
17007;DHT22;8620;51.168;4.154;2023-01-08T19:33:18;9.60;99.90
17007;DHT22;8620;51.168;4.154;2023-01-08T19:39:37;9.60;99.90
17007;DHT22;8620;51.168;4.154;2023-01-08T19:42:03;9.60;99.90
17007;DHT22;8620;51.168;4.154;2023-01-08T19:45:29;9.60;99.90
17007;DHT22;8620;51.168;4.154;2023-01-08T19:48:25;9.70;99.90
17007;DHT22;8620;51.168;4.154;2023-01-08T19:54:41;9.60;99.90
17007;DHT22;8620;51.168;4.154;2023-01-08T19:57:37;9.60;99.90
17007;DHT22;8620;51.168;4.154;2023-01-08T20:01:26;9.50;99.90
17007;DHT22;8620;51.168;4.154;2023-01-08T20:04:12;9.50;99.90
17007;DHT22;8620;51.168;4.154;2023-01-08T20:11:02;9.50;99.90
17007;DHT22;8620;51.168;4.154;2023-01-08T20:14:29;9.50;99.90
17007;DHT22;8620;51.168;4.154;2023-01-08T20:17:18;9.60;99.90
17007;DHT22;8620;51.168;4.154;2023-01-08T20:20:12;9.70;99.90
17007;DHT22;8620;51.168;4.154;2023-01-08T20:29:53;9.70;99.90
17007;DHT22;8620;51.168;4.154;2023-01-08T20:32:49;9.70;99.90
17007;DHT22;8620;51.168;4.154;2023-01-08T20:39:19;9.70;99.90
17007;DHT22;8620;51.168;4.154;2023-01-08T20:42:08;10.00;99.90
17007;DHT22;8620;51.168;4.154;2023-01-08T20:48:31;9.80;99.90
17007;DHT22;8620;51.168;4.154;2023-01-08T20:54:26;9.40;99.90
17007;DHT22;8620;51.168;4.154;2023-01-08T20:57:16;9.30;99.90
17007;DHT22;8620;51.168;4.154;2023-01-08T21:00:11;9.00;99.90
17007;DHT22;8620;51.168;4.154;2023-01-08T21:03:04;8.70;99.90
17007;DHT22;8620;51.168;4.154;2023-01-08T21:06:01;8.50;99.90
17007;DHT22;8620;51.168;4.154;2023-01-08T21:08:49;8.40;99.90
17007;DHT22;8620;51.168;4.154;2023-01-08T21:11:23;8.40;99.90
17007;DHT22;8620;51.168;4.154;2023-01-08T21:13:49;8.50;99.90
17007;DHT22;8620;51.168;4.154;2023-01-08T21:16:18;8.60;99.90
17007;DHT22;8620;51.168;4.154;2023-01-08T21:18:49;8.50;99.90
17007;DHT22;8620;51.168;4.154;2023-01-08T21:21:32;8.60;99.90
17007;DHT22;8620;51.168;4.154;2023-01-08T21:24:12;8.80;99.90
17007;DHT22;8620;51.168;4.154;2023-01-08T21:26:47;9.00;99.90
17007;DHT22;8620;51.168;4.154;2023-01-08T21:29:31;9.00;99.90
17007;DHT22;8620;51.168;4.154;2023-01-08T21:35:09;9.20;99.90
17007;DHT22;8620;51.168;4.154;2023-01-08T21:37:55;9.00;99.90
17007;DHT22;8620;51.168;4.154;2023-01-08T21:40:24;9.00;99.90
17007;DHT22;8620;51.168;4.154;2023-01-08T21:43:22;9.10;99.90
17007;DHT22;8620;51.168;4.154;2023-01-08T21:46:09;9.00;99.90
17007;DHT22;8620;51.168;4.154;2023-01-08T21:48:41;8.80;99.90
17007;DHT22;8620;51.168;4.154;2023-01-08T21:51:18;8.60;99.90
17007;DHT22;8620;51.168;4.154;2023-01-08T21:54:13;8.50;99.90
17007;DHT22;8620;51.168;4.154;2023-01-08T21:56:47;8.50;99.90
17007;DHT22;8620;51.168;4.154;2023-01-08T21:59:17;8.40;99.90
17007;DHT22;8620;51.168;4.154;2023-01-08T22:01:52;8.40;99.90
17007;DHT22;8620;51.168;4.154;2023-01-08T22:07:27;8.30;99.90
17007;DHT22;8620;51.168;4.154;2023-01-08T22:09:55;8.40;99.90
17007;DHT22;8620;51.168;4.154;2023-01-08T22:12:26;8.50;99.90
17007;DHT22;8620;51.168;4.154;2023-01-08T22:14:55;8.20;99.90
17007;DHT22;8620;51.168;4.154;2023-01-08T22:17:25;8.10;99.90
17007;DHT22;8620;51.168;4.154;2023-01-08T22:19:57;8.20;99.90
17007;DHT22;8620;51.168;4.154;2023-01-08T22:33:34;7.50;99.90
17007;DHT22;8620;51.168;4.154;2023-01-08T22:36:07;7.60;99.90
17007;DHT22;8620;51.168;4.154;2023-01-08T22:38:38;7.70;99.90
17007;DHT22;8620;51.168;4.154;2023-01-08T22:41:17;7.80;99.90
17007;DHT22;8620;51.168;4.154;2023-01-08T22:43:54;7.80;99.90
17007;DHT22;8620;51.168;4.154;2023-01-08T22:46:22;7.80;99.90
17007;DHT22;8620;51.168;4.154;2023-01-08T22:48:51;7.90;99.90
17007;DHT22;8620;51.168;4.154;2023-01-08T22:51:27;7.90;99.90
17007;DHT22;8620;51.168;4.154;2023-01-08T22:54:04;8.20;99.90
17007;DHT22;8620;51.168;4.154;2023-01-08T22:56:50;8.20;99.90
17007;DHT22;8620;51.168;4.154;2023-01-08T22:59:19;8.20;99.90
